sensor_id;sensor_type;location;lat;lon;timestamp;P1;durP1;ratioP1;P2;durP2;ratioP2
15035;SDS011;7615;48.574;13.474;2023-07-28T00:00:09;4.32;;;3.33;;
15035;SDS011;7615;48.574;13.474;2023-07-28T00:02:37;3.72;;;2.67;;
15035;SDS011;7615;48.574;13.474;2023-07-28T00:05:06;6.55;;;3.80;;
15035;SDS011;7615;48.574;13.474;2023-07-28T00:07:33;2.75;;;2.55;;
15035;SDS011;7615;48.574;13.474;2023-07-28T00:10:01;2.97;;;2.78;;
15035;SDS011;7615;48.574;13.474;2023-07-28T00:12:28;3.80;;;2.80;;
15035;SDS011;7615;48.574;13.474;2023-07-28T00:14:55;3.28;;;2.97;;
15035;SDS011;7615;48.574;13.474;2023-07-28T00:17:25;3.75;;;3.30;;
15035;SDS011;7615;48.574;13.474;2023-07-28T00:19:52;3.45;;;3.15;;
15035;SDS011;7615;48.574;13.474;2023-07-28T00:22:20;4.00;;;3.00;;
15035;SDS011;7615;48.574;13.474;2023-07-28T00:24:47;3.35;;;3.05;;
15035;SDS011;7615;48.574;13.474;2023-07-28T00:27:14;5.22;;;4.05;;
15035;SDS011;7615;48.574;13.474;2023-07-28T00:29:41;3.58;;;3.13;;
15035;SDS011;7615;48.574;13.474;2023-07-28T00:32:08;3.15;;;2.95;;
15035;SDS011;7615;48.574;13.474;2023-07-28T00:34:35;3.42;;;2.90;;
15035;SDS011;7615;48.574;13.474;2023-07-28T00:37:02;4.82;;;2.70;;
15035;SDS011;7615;48.574;13.474;2023-07-28T00:39:30;3.00;;;2.80;;
15035;SDS011;7615;48.574;13.474;2023-07-28T00:41:57;3.47;;;3.17;;
15035;SDS011;7615;48.574;13.474;2023-07-28T00:44:24;3.10;;;2.85;;
15035;SDS011;7615;48.574;13.474;2023-07-28T00:46:50;3.22;;;2.70;;
15035;SDS011;7615;48.574;13.474;2023-07-28T00:49:17;2.80;;;2.60;;
15035;SDS011;7615;48.574;13.474;2023-07-28T00:51:44;3.00;;;2.72;;
15035;SDS011;7615;48.574;13.474;2023-07-28T00:54:12;2.80;;;2.60;;
15035;SDS011;7615;48.574;13.474;2023-07-28T00:56:40;3.70;;;3.00;;
15035;SDS011;7615;48.574;13.474;2023-07-28T00:59:07;4.70;;;3.33;;
15035;SDS011;7615;48.574;13.474;2023-07-28T01:01:34;4.00;;;3.65;;
15035;SDS011;7615;48.574;13.474;2023-07-28T01:04:01;2.80;;;2.53;;
15035;SDS011;7615;48.574;13.474;2023-07-28T01:06:29;2.90;;;2.67;;
15035;SDS011;7615;48.574;13.474;2023-07-28T01:09:06;2.90;;;2.70;;
15035;SDS011;7615;48.574;13.474;2023-07-28T01:11:38;3.58;;;3.10;;
15035;SDS011;7615;48.574;13.474;2023-07-28T01:14:19;2.90;;;2.70;;
15035;SDS011;7615;48.574;13.474;2023-07-28T01:16:46;3.47;;;2.65;;
15035;SDS011;7615;48.574;13.474;2023-07-28T01:19:13;2.88;;;2.47;;
15035;SDS011;7615;48.574;13.474;2023-07-28T01:21:43;3.05;;;2.75;;
15035;SDS011;7615;48.574;13.474;2023-07-28T01:24:15;3.78;;;3.20;;
15035;SDS011;7615;48.574;13.474;2023-07-28T01:26:49;4.13;;;3.25;;
15035;SDS011;7615;48.574;13.474;2023-07-28T01:29:17;3.42;;;3.13;;
15035;SDS011;7615;48.574;13.474;2023-07-28T01:31:45;3.70;;;3.40;;
15035;SDS011;7615;48.574;13.474;2023-07-28T01:34:13;4.00;;;3.10;;
15035;SDS011;7615;48.574;13.474;2023-07-28T01:36:40;4.85;;;3.80;;
15035;SDS011;7615;48.574;13.474;2023-07-28T01:39:07;5.07;;;3.38;;
15035;SDS011;7615;48.574;13.474;2023-07-28T01:41:34;4.00;;;3.58;;
15035;SDS011;7615;48.574;13.474;2023-07-28T01:44:03;4.45;;;3.58;;
15035;SDS011;7615;48.574;13.474;2023-07-28T01:46:30;3.47;;;3.13;;
15035;SDS011;7615;48.574;13.474;2023-07-28T01:48:57;6.05;;;3.47;;
15035;SDS011;7615;48.574;13.474;2023-07-28T01:51:24;4.35;;;3.20;;
15035;SDS011;7615;48.574;13.474;2023-07-28T01:53:50;4.15;;;3.15;;
15035;SDS011;7615;48.574;13.474;2023-07-28T01:56:17;3.50;;;3.20;;
15035;SDS011;7615;48.574;13.474;2023-07-28T01:58:44;3.90;;;3.30;;
15035;SDS011;7615;48.574;13.474;2023-07-28T02:01:13;3.65;;;3.35;;
15035;SDS011;7615;48.574;13.474;2023-07-28T02:03:40;3.88;;;3.58;;
15035;SDS011;7615;48.574;13.474;2023-07-28T02:06:07;4.05;;;3.53;;
15035;SDS011;7615;48.574;13.474;2023-07-28T02:08:34;3.38;;;3.08;;
15035;SDS011;7615;48.574;13.474;2023-07-28T02:11:01;4.45;;;3.30;;
15035;SDS011;7615;48.574;13.474;2023-07-28T02:13:28;4.55;;;4.10;;
15035;SDS011;7615;48.574;13.474;2023-07-28T02:15:55;5.75;;;3.65;;
15035;SDS011;7615;48.574;13.474;2023-07-28T02:18:23;5.00;;;3.22;;
15035;SDS011;7615;48.574;13.474;2023-07-28T02:20:50;3.53;;;3.22;;
15035;SDS011;7615;48.574;13.474;2023-07-28T02:23:17;9.02;;;4.38;;
15035;SDS011;7615;48.574;13.474;2023-07-28T02:25:43;3.47;;;3.17;;
15035;SDS011;7615;48.574;13.474;2023-07-28T02:28:10;3.83;;;3.53;;
15035;SDS011;7615;48.574;13.474;2023-07-28T02:30:38;3.63;;;3.33;;
15035;SDS011;7615;48.574;13.474;2023-07-28T02:33:04;2.95;;;2.75;;
15035;SDS011;7615;48.574;13.474;2023-07-28T02:35:33;3.13;;;2.93;;
15035;SDS011;7615;48.574;13.474;2023-07-28T02:38:01;3.20;;;3.00;;
15035;SDS011;7615;48.574;13.474;2023-07-28T02:40:28;3.78;;;3.47;;
15035;SDS011;7615;48.574;13.474;2023-07-28T02:42:55;4.93;;;3.35;;
15035;SDS011;7615;48.574;13.474;2023-07-28T02:45:23;4.03;;;3.63;;
15035;SDS011;7615;48.574;13.474;2023-07-28T02:47:50;3.85;;;3.42;;
15035;SDS011;7615;48.574;13.474;2023-07-28T02:50:17;4.03;;;3.63;;
15035;SDS011;7615;48.574;13.474;2023-07-28T02:52:44;4.70;;;3.20;;
15035;SDS011;7615;48.574;13.474;2023-07-28T02:55:11;3.28;;;2.97;;
15035;SDS011;7615;48.574;13.474;2023-07-28T02:57:38;7.53;;;3.28;;
15035;SDS011;7615;48.574;13.474;2023-07-28T03:00:05;3.00;;;2.80;;
15035;SDS011;7615;48.574;13.474;2023-07-28T03:02:35;4.28;;;3.00;;
15035;SDS011;7615;48.574;13.474;2023-07-28T03:05:02;4.25;;;3.15;;
15035;SDS011;7615;48.574;13.474;2023-07-28T03:07:29;4.00;;;3.35;;
15035;SDS011;7615;48.574;13.474;2023-07-28T03:09:58;3.28;;;3.08;;
15035;SDS011;7615;48.574;13.474;2023-07-28T03:12:24;5.28;;;3.13;;
15035;SDS011;7615;48.574;13.474;2023-07-28T03:14:51;4.30;;;3.28;;
15035;SDS011;7615;48.574;13.474;2023-07-28T03:17:18;3.58;;;3.20;;
15035;SDS011;7615;48.574;13.474;2023-07-28T03:19:45;5.28;;;3.47;;
15035;SDS011;7615;48.574;13.474;2023-07-28T03:22:12;3.50;;;2.92;;
15035;SDS011;7615;48.574;13.474;2023-07-28T03:24:38;4.97;;;3.30;;
15035;SDS011;7615;48.574;13.474;2023-07-28T03:27:08;5.43;;;3.55;;
15035;SDS011;7615;48.574;13.474;2023-07-28T03:29:34;3.75;;;3.30;;
15035;SDS011;7615;48.574;13.474;2023-07-28T03:32:01;4.57;;;3.33;;
15035;SDS011;7615;48.574;13.474;2023-07-28T03:34:28;6.28;;;3.75;;
15035;SDS011;7615;48.574;13.474;2023-07-28T03:36:55;5.15;;;3.80;;
15035;SDS011;7615;48.574;13.474;2023-07-28T03:39:22;4.95;;;4.55;;
15035;SDS011;7615;48.574;13.474;2023-07-28T03:41:48;4.80;;;3.60;;
15035;SDS011;7615;48.574;13.474;2023-07-28T03:44:17;6.95;;;4.00;;
15035;SDS011;7615;48.574;13.474;2023-07-28T03:46:44;4.10;;;3.65;;
15035;SDS011;7615;48.574;13.474;2023-07-28T03:49:11;4.97;;;3.80;;
15035;SDS011;7615;48.574;13.474;2023-07-28T03:51:38;5.18;;;3.50;;
15035;SDS011;7615;48.574;13.474;2023-07-28T03:54:05;8.65;;;3.90;;
15035;SDS011;7615;48.574;13.474;2023-07-28T03:56:32;5.43;;;3.38;;
15035;SDS011;7615;48.574;13.474;2023-07-28T03:58:59;3.95;;;3.15;;
15035;SDS011;7615;48.574;13.474;2023-07-28T04:01:27;3.58;;;3.28;;
15035;SDS011;7615;48.574;13.474;2023-07-28T04:03:54;3.92;;;3.28;;
15035;SDS011;7615;48.574;13.474;2023-07-28T04:06:35;3.63;;;3.33;;
15035;SDS011;7615;48.574;13.474;2023-07-28T04:09:06;5.53;;;3.75;;
15035;SDS011;7615;48.574;13.474;2023-07-28T04:11:33;3.72;;;3.20;;
15035;SDS011;7615;48.574;13.474;2023-07-28T04:14:00;5.05;;;3.75;;
15035;SDS011;7615;48.574;13.474;2023-07-28T04:16:28;6.40;;;4.13;;
15035;SDS011;7615;48.574;13.474;2023-07-28T04:18:55;4.47;;;4.07;;
15035;SDS011;7615;48.574;13.474;2023-07-28T04:21:25;4.40;;;4.00;;
15035;SDS011;7615;48.574;13.474;2023-07-28T04:23:52;4.40;;;3.55;;
15035;SDS011;7615;48.574;13.474;2023-07-28T04:26:18;4.03;;;3.58;;
15035;SDS011;7615;48.574;13.474;2023-07-28T04:28:45;4.45;;;4.05;;
15035;SDS011;7615;48.574;13.474;2023-07-28T04:31:12;4.07;;;3.70;;
15035;SDS011;7615;48.574;13.474;2023-07-28T04:33:41;5.55;;;3.78;;
15035;SDS011;7615;48.574;13.474;2023-07-28T04:36:09;3.80;;;3.50;;
15035;SDS011;7615;48.574;13.474;2023-07-28T04:38:36;5.00;;;3.60;;
15035;SDS011;7615;48.574;13.474;2023-07-28T04:41:02;3.88;;;3.53;;
15035;SDS011;7615;48.574;13.474;2023-07-28T04:43:29;5.55;;;3.63;;
15035;SDS011;7615;48.574;13.474;2023-07-28T04:45:56;4.18;;;3.55;;
15035;SDS011;7615;48.574;13.474;2023-07-28T04:48:23;4.30;;;3.80;;
15035;SDS011;7615;48.574;13.474;2023-07-28T04:50:51;4.22;;;3.83;;
15035;SDS011;7615;48.574;13.474;2023-07-28T04:53:18;6.10;;;4.25;;
15035;SDS011;7615;48.574;13.474;2023-07-28T04:55:45;10.13;;;4.45;;
15035;SDS011;7615;48.574;13.474;2023-07-28T04:58:12;5.72;;;4.35;;
15035;SDS011;7615;48.574;13.474;2023-07-28T05:00:39;6.03;;;3.90;;
15035;SDS011;7615;48.574;13.474;2023-07-28T05:03:06;5.35;;;4.03;;
15035;SDS011;7615;48.574;13.474;2023-07-28T05:05:33;6.22;;;3.90;;
15035;SDS011;7615;48.574;13.474;2023-07-28T05:08:01;4.07;;;3.67;;
15035;SDS011;7615;48.574;13.474;2023-07-28T05:10:28;5.00;;;4.28;;
15035;SDS011;7615;48.574;13.474;2023-07-28T05:12:55;5.22;;;4.00;;
15035;SDS011;7615;48.574;13.474;2023-07-28T05:15:21;7.03;;;3.92;;
15035;SDS011;7615;48.574;13.474;2023-07-28T05:17:49;4.60;;;3.63;;
15035;SDS011;7615;48.574;13.474;2023-07-28T05:20:15;4.38;;;3.80;;
15035;SDS011;7615;48.574;13.474;2023-07-28T05:22:42;8.15;;;3.67;;
15035;SDS011;7615;48.574;13.474;2023-07-28T05:25:10;4.13;;;3.67;;
15035;SDS011;7615;48.574;13.474;2023-07-28T05:27:37;3.60;;;3.15;;
15035;SDS011;7615;48.574;13.474;2023-07-28T05:30:05;5.32;;;3.65;;
15035;SDS011;7615;48.574;13.474;2023-07-28T05:32:33;4.32;;;3.90;;
15035;SDS011;7615;48.574;13.474;2023-07-28T05:35:00;5.38;;;3.80;;
15035;SDS011;7615;48.574;13.474;2023-07-28T05:37:26;5.43;;;3.72;;
15035;SDS011;7615;48.574;13.474;2023-07-28T05:39:53;9.38;;;3.90;;
15035;SDS011;7615;48.574;13.474;2023-07-28T05:42:22;3.97;;;3.40;;
15035;SDS011;7615;48.574;13.474;2023-07-28T05:44:50;5.18;;;3.58;;
15035;SDS011;7615;48.574;13.474;2023-07-28T05:47:19;3.58;;;3.25;;
15035;SDS011;7615;48.574;13.474;2023-07-28T05:49:46;4.03;;;3.42;;
15035;SDS011;7615;48.574;13.474;2023-07-28T05:52:13;3.50;;;3.20;;
15035;SDS011;7615;48.574;13.474;2023-07-28T05:54:40;4.30;;;3.25;;
15035;SDS011;7615;48.574;13.474;2023-07-28T05:57:07;3.42;;;3.13;;
15035;SDS011;7615;48.574;13.474;2023-07-28T05:59:35;3.65;;;3.25;;
15035;SDS011;7615;48.574;13.474;2023-07-28T06:02:02;4.07;;;3.53;;
15035;SDS011;7615;48.574;13.474;2023-07-28T06:04:29;5.88;;;3.70;;
15035;SDS011;7615;48.574;13.474;2023-07-28T06:06:56;4.57;;;3.55;;
15035;SDS011;7615;48.574;13.474;2023-07-28T06:09:23;3.63;;;3.33;;
15035;SDS011;7615;48.574;13.474;2023-07-28T06:11:50;4.03;;;2.80;;
15035;SDS011;7615;48.574;13.474;2023-07-28T06:14:17;5.93;;;3.55;;
15035;SDS011;7615;48.574;13.474;2023-07-28T06:16:45;8.75;;;3.63;;
15035;SDS011;7615;48.574;13.474;2023-07-28T06:19:12;5.07;;;2.95;;
15035;SDS011;7615;48.574;13.474;2023-07-28T06:21:39;4.18;;;3.20;;
15035;SDS011;7615;48.574;13.474;2023-07-28T06:24:05;4.70;;;3.10;;
15035;SDS011;7615;48.574;13.474;2023-07-28T06:26:32;4.47;;;3.13;;
15035;SDS011;7615;48.574;13.474;2023-07-28T06:28:59;3.30;;;3.00;;
15035;SDS011;7615;48.574;13.474;2023-07-28T06:31:26;6.43;;;3.58;;
15035;SDS011;7615;48.574;13.474;2023-07-28T06:33:54;3.42;;;3.13;;
15035;SDS011;7615;48.574;13.474;2023-07-28T06:36:21;4.80;;;3.17;;
15035;SDS011;7615;48.574;13.474;2023-07-28T06:38:48;4.00;;;3.60;;
15035;SDS011;7615;48.574;13.474;2023-07-28T06:41:17;3.70;;;3.38;;
15035;SDS011;7615;48.574;13.474;2023-07-28T06:43:44;5.45;;;4.95;;
15035;SDS011;7615;48.574;13.474;2023-07-28T06:46:11;7.97;;;5.70;;
15035;SDS011;7615;48.574;13.474;2023-07-28T06:48:37;4.18;;;3.58;;
15035;SDS011;7615;48.574;13.474;2023-07-28T06:51:06;5.53;;;3.72;;
15035;SDS011;7615;48.574;13.474;2023-07-28T06:53:33;5.75;;;3.58;;
15035;SDS011;7615;48.574;13.474;2023-07-28T06:56:00;3.40;;;3.10;;
15035;SDS011;7615;48.574;13.474;2023-07-28T06:58:26;5.72;;;3.47;;
15035;SDS011;7615;48.574;13.474;2023-07-28T07:00:53;3.47;;;3.17;;
15035;SDS011;7615;48.574;13.474;2023-07-28T07:03:22;3.90;;;3.50;;
15035;SDS011;7615;48.574;13.474;2023-07-28T07:05:49;4.78;;;3.83;;
15035;SDS011;7615;48.574;13.474;2023-07-28T07:08:17;3.72;;;3.10;;
15035;SDS011;7615;48.574;13.474;2023-07-28T07:10:47;4.80;;;3.22;;
15035;SDS011;7615;48.574;13.474;2023-07-28T07:13:15;3.92;;;2.90;;
15035;SDS011;7615;48.574;13.474;2023-07-28T07:15:42;4.78;;;2.92;;
15035;SDS011;7615;48.574;13.474;2023-07-28T07:18:09;5.13;;;2.90;;
15035;SDS011;7615;48.574;13.474;2023-07-28T07:20:36;5.50;;;3.80;;
15035;SDS011;7615;48.574;13.474;2023-07-28T07:23:03;6.45;;;5.50;;
15035;SDS011;7615;48.574;13.474;2023-07-28T07:25:31;4.75;;;3.20;;
15035;SDS011;7615;48.574;13.474;2023-07-28T07:27:58;3.70;;;3.35;;
15035;SDS011;7615;48.574;13.474;2023-07-28T07:30:25;5.38;;;3.08;;
15035;SDS011;7615;48.574;13.474;2023-07-28T07:32:52;7.22;;;2.92;;
15035;SDS011;7615;48.574;13.474;2023-07-28T07:35:19;3.53;;;3.08;;
15035;SDS011;7615;48.574;13.474;2023-07-28T07:37:46;5.78;;;3.78;;
15035;SDS011;7615;48.574;13.474;2023-07-28T07:40:12;5.63;;;3.95;;
15035;SDS011;7615;48.574;13.474;2023-07-28T07:42:41;4.28;;;3.33;;
15035;SDS011;7615;48.574;13.474;2023-07-28T07:45:10;6.90;;;3.08;;
15035;SDS011;7615;48.574;13.474;2023-07-28T07:47:38;4.97;;;3.17;;
15035;SDS011;7615;48.574;13.474;2023-07-28T07:50:05;3.08;;;2.78;;
15035;SDS011;7615;48.574;13.474;2023-07-28T07:52:34;3.05;;;2.85;;
15035;SDS011;7615;48.574;13.474;2023-07-28T07:55:01;3.65;;;3.35;;
15035;SDS011;7615;48.574;13.474;2023-07-28T07:57:28;4.03;;;3.30;;
15035;SDS011;7615;48.574;13.474;2023-07-28T07:59:57;7.18;;;3.30;;
15035;SDS011;7615;48.574;13.474;2023-07-28T08:02:24;3.88;;;2.95;;
15035;SDS011;7615;48.574;13.474;2023-07-28T08:04:51;3.10;;;2.80;;
15035;SDS011;7615;48.574;13.474;2023-07-28T08:07:19;4.15;;;3.13;;
15035;SDS011;7615;48.574;13.474;2023-07-28T08:09:46;3.17;;;2.85;;
15035;SDS011;7615;48.574;13.474;2023-07-28T08:12:13;3.30;;;3.00;;
15035;SDS011;7615;48.574;13.474;2023-07-28T08:14:40;3.80;;;3.03;;
15035;SDS011;7615;48.574;13.474;2023-07-28T08:17:09;3.47;;;2.88;;
15035;SDS011;7615;48.574;13.474;2023-07-28T08:19:36;3.10;;;2.70;;
15035;SDS011;7615;48.574;13.474;2023-07-28T08:22:03;3.20;;;2.90;;
15035;SDS011;7615;48.574;13.474;2023-07-28T08:24:30;3.80;;;3.28;;
15035;SDS011;7615;48.574;13.474;2023-07-28T08:26:58;3.30;;;2.70;;
15035;SDS011;7615;48.574;13.474;2023-07-28T08:29:25;4.60;;;2.92;;
15035;SDS011;7615;48.574;13.474;2023-07-28T08:31:52;3.83;;;2.92;;
15035;SDS011;7615;48.574;13.474;2023-07-28T08:34:20;6.30;;;2.92;;
15035;SDS011;7615;48.574;13.474;2023-07-28T08:36:47;3.92;;;2.97;;
15035;SDS011;7615;48.574;13.474;2023-07-28T08:39:14;5.43;;;3.30;;
15035;SDS011;7615;48.574;13.474;2023-07-28T08:41:41;5.00;;;3.10;;
15035;SDS011;7615;48.574;13.474;2023-07-28T08:44:08;4.25;;;3.05;;
15035;SDS011;7615;48.574;13.474;2023-07-28T08:46:36;2.97;;;2.78;;
15035;SDS011;7615;48.574;13.474;2023-07-28T08:49:03;3.13;;;2.60;;
15035;SDS011;7615;48.574;13.474;2023-07-28T08:51:32;2.88;;;2.40;;
15035;SDS011;7615;48.574;13.474;2023-07-28T08:53:59;3.75;;;2.30;;
15035;SDS011;7615;48.574;13.474;2023-07-28T08:56:26;3.00;;;2.67;;
15035;SDS011;7615;48.574;13.474;2023-07-28T08:58:57;3.47;;;2.42;;
15035;SDS011;7615;48.574;13.474;2023-07-28T09:01:24;2.85;;;2.65;;
15035;SDS011;7615;48.574;13.474;2023-07-28T09:03:52;3.83;;;3.05;;
15035;SDS011;7615;48.574;13.474;2023-07-28T09:06:19;2.72;;;2.53;;
15035;SDS011;7615;48.574;13.474;2023-07-28T09:08:57;3.17;;;2.88;;
15035;SDS011;7615;48.574;13.474;2023-07-28T09:11:24;3.60;;;2.60;;
15035;SDS011;7615;48.574;13.474;2023-07-28T09:13:53;2.60;;;2.40;;
15035;SDS011;7615;48.574;13.474;2023-07-28T09:16:21;3.65;;;2.65;;
15035;SDS011;7615;48.574;13.474;2023-07-28T09:18:49;7.53;;;2.50;;
15035;SDS011;7615;48.574;13.474;2023-07-28T09:21:17;2.88;;;2.40;;
15035;SDS011;7615;48.574;13.474;2023-07-28T09:23:46;3.25;;;2.95;;
15035;SDS011;7615;48.574;13.474;2023-07-28T09:26:15;2.72;;;2.50;;
15035;SDS011;7615;48.574;13.474;2023-07-28T09:28:43;2.63;;;2.25;;
15035;SDS011;7615;48.574;13.474;2023-07-28T09:31:10;3.70;;;2.95;;
15035;SDS011;7615;48.574;13.474;2023-07-28T09:33:37;5.22;;;2.67;;
15035;SDS011;7615;48.574;13.474;2023-07-28T09:36:08;2.72;;;2.53;;
15035;SDS011;7615;48.574;13.474;2023-07-28T09:38:36;3.15;;;2.55;;
15035;SDS011;7615;48.574;13.474;2023-07-28T09:41:05;4.40;;;2.70;;
15035;SDS011;7615;48.574;13.474;2023-07-28T09:43:35;4.25;;;2.42;;
15035;SDS011;7615;48.574;13.474;2023-07-28T09:46:03;4.05;;;3.42;;
15035;SDS011;7615;48.574;13.474;2023-07-28T09:48:31;2.70;;;2.50;;
15035;SDS011;7615;48.574;13.474;2023-07-28T09:51:00;2.75;;;2.40;;
15035;SDS011;7615;48.574;13.474;2023-07-28T09:53:30;5.50;;;2.80;;
15035;SDS011;7615;48.574;13.474;2023-07-28T09:55:58;3.53;;;2.42;;
15035;SDS011;7615;48.574;13.474;2023-07-28T09:58:27;2.42;;;2.22;;
15035;SDS011;7615;48.574;13.474;2023-07-28T10:00:59;4.60;;;2.42;;
15035;SDS011;7615;48.574;13.474;2023-07-28T10:03:27;2.80;;;2.60;;
15035;SDS011;7615;48.574;13.474;2023-07-28T10:05:55;4.05;;;2.45;;
15035;SDS011;7615;48.574;13.474;2023-07-28T10:08:22;2.67;;;2.35;;
15035;SDS011;7615;48.574;13.474;2023-07-28T10:10:50;3.17;;;2.85;;
15035;SDS011;7615;48.574;13.474;2023-07-28T10:13:21;3.03;;;2.60;;
15035;SDS011;7615;48.574;13.474;2023-07-28T10:15:49;2.92;;;2.58;;
15035;SDS011;7615;48.574;13.474;2023-07-28T10:18:23;4.15;;;3.08;;
15035;SDS011;7615;48.574;13.474;2023-07-28T10:26:57;4.72;;;2.50;;
15035;SDS011;7615;48.574;13.474;2023-07-28T10:29:25;2.70;;;2.50;;
15035;SDS011;7615;48.574;13.474;2023-07-28T10:32:03;3.65;;;2.53;;
15035;SDS011;7615;48.574;13.474;2023-07-28T10:34:40;2.90;;;2.40;;
15035;SDS011;7615;48.574;13.474;2023-07-28T10:37:08;3.15;;;2.65;;
15035;SDS011;7615;48.574;13.474;2023-07-28T10:39:36;2.65;;;2.38;;
15035;SDS011;7615;48.574;13.474;2023-07-28T10:42:04;3.03;;;2.60;;
15035;SDS011;7615;48.574;13.474;2023-07-28T10:44:32;2.85;;;2.65;;
15035;SDS011;7615;48.574;13.474;2023-07-28T10:47:00;4.55;;;2.97;;
15035;SDS011;7615;48.574;13.474;2023-07-28T10:49:27;3.40;;;3.10;;
15035;SDS011;7615;48.574;13.474;2023-07-28T10:51:56;2.60;;;2.40;;
15035;SDS011;7615;48.574;13.474;2023-07-28T10:54:23;4.88;;;2.70;;
15035;SDS011;7615;48.574;13.474;2023-07-28T10:56:50;3.50;;;2.85;;
15035;SDS011;7615;48.574;13.474;2023-07-28T10:59:18;2.70;;;2.50;;
15035;SDS011;7615;48.574;13.474;2023-07-28T11:01:46;2.35;;;2.13;;
15035;SDS011;7615;48.574;13.474;2023-07-28T11:04:13;3.00;;;2.58;;
15035;SDS011;7615;48.574;13.474;2023-07-28T11:06:42;2.92;;;2.63;;
15035;SDS011;7615;48.574;13.474;2023-07-28T11:09:11;2.97;;;2.50;;
15035;SDS011;7615;48.574;13.474;2023-07-28T11:11:39;3.33;;;2.42;;
15035;SDS011;7615;48.574;13.474;2023-07-28T11:14:07;4.28;;;3.88;;
15035;SDS011;7615;48.574;13.474;2023-07-28T11:16:35;3.30;;;3.00;;
15035;SDS011;7615;48.574;13.474;2023-07-28T11:19:07;2.88;;;2.65;;
15035;SDS011;7615;48.574;13.474;2023-07-28T11:21:35;2.47;;;2.28;;
15035;SDS011;7615;48.574;13.474;2023-07-28T11:24:02;2.33;;;2.13;;
15035;SDS011;7615;48.574;13.474;2023-07-28T11:26:31;2.72;;;2.53;;
15035;SDS011;7615;48.574;13.474;2023-07-28T11:29:00;3.15;;;2.60;;
15035;SDS011;7615;48.574;13.474;2023-07-28T11:31:27;4.13;;;2.88;;
15035;SDS011;7615;48.574;13.474;2023-07-28T11:33:54;4.10;;;3.20;;
15035;SDS011;7615;48.574;13.474;2023-07-28T11:36:22;3.33;;;3.05;;
15035;SDS011;7615;48.574;13.474;2023-07-28T11:38:50;3.88;;;3.13;;
15035;SDS011;7615;48.574;13.474;2023-07-28T11:41:17;3.25;;;2.95;;
15035;SDS011;7615;48.574;13.474;2023-07-28T11:43:47;4.20;;;3.78;;
15035;SDS011;7615;48.574;13.474;2023-07-28T11:46:33;3.13;;;2.80;;
15035;SDS011;7615;48.574;13.474;2023-07-28T11:49:07;3.35;;;2.60;;
15035;SDS011;7615;48.574;13.474;2023-07-28T11:51:39;3.10;;;2.80;;
15035;SDS011;7615;48.574;13.474;2023-07-28T11:54:10;2.90;;;2.70;;
15035;SDS011;7615;48.574;13.474;2023-07-28T11:56:39;3.20;;;2.85;;
15035;SDS011;7615;48.574;13.474;2023-07-28T11:59:07;3.53;;;2.90;;
15035;SDS011;7615;48.574;13.474;2023-07-28T12:01:34;3.55;;;3.03;;
15035;SDS011;7615;48.574;13.474;2023-07-28T12:09:25;3.25;;;2.95;;
15035;SDS011;7615;48.574;13.474;2023-07-28T12:11:52;4.18;;;2.90;;
15035;SDS011;7615;48.574;13.474;2023-07-28T12:14:31;3.20;;;2.90;;
15035;SDS011;7615;48.574;13.474;2023-07-28T12:16:59;3.53;;;3.10;;
15035;SDS011;7615;48.574;13.474;2023-07-28T12:19:26;3.25;;;3.00;;
15035;SDS011;7615;48.574;13.474;2023-07-28T12:21:53;3.35;;;3.00;;
15035;SDS011;7615;48.574;13.474;2023-07-28T12:24:20;3.25;;;2.95;;
15035;SDS011;7615;48.574;13.474;2023-07-28T12:26:48;3.22;;;2.92;;
15035;SDS011;7615;48.574;13.474;2023-07-28T12:29:15;3.50;;;2.75;;
15035;SDS011;7615;48.574;13.474;2023-07-28T12:31:44;3.30;;;2.97;;
15035;SDS011;7615;48.574;13.474;2023-07-28T12:34:11;5.13;;;3.15;;
15035;SDS011;7615;48.574;13.474;2023-07-28T12:36:39;4.07;;;3.20;;
15035;SDS011;7615;48.574;13.474;2023-07-28T12:39:06;6.57;;;3.65;;
15035;SDS011;7615;48.574;13.474;2023-07-28T12:41:33;4.28;;;3.42;;
15035;SDS011;7615;48.574;13.474;2023-07-28T12:44:01;5.10;;;4.00;;
15035;SDS011;7615;48.574;13.474;2023-07-28T12:46:28;4.82;;;4.20;;
15035;SDS011;7615;48.574;13.474;2023-07-28T12:48:56;7.68;;;4.68;;
15035;SDS011;7615;48.574;13.474;2023-07-28T12:51:25;5.68;;;4.05;;
15035;SDS011;7615;48.574;13.474;2023-07-28T12:53:52;5.60;;;3.75;;
15035;SDS011;7615;48.574;13.474;2023-07-28T12:56:19;4.20;;;3.80;;
15035;SDS011;7615;48.574;13.474;2023-07-28T12:58:46;7.40;;;4.88;;
15035;SDS011;7615;48.574;13.474;2023-07-28T13:01:14;6.30;;;4.13;;
15035;SDS011;7615;48.574;13.474;2023-07-28T13:03:41;4.32;;;3.83;;
15035;SDS011;7615;48.574;13.474;2023-07-28T13:06:09;4.63;;;3.83;;
15035;SDS011;7615;48.574;13.474;2023-07-28T13:08:36;3.88;;;3.55;;
15035;SDS011;7615;48.574;13.474;2023-07-28T13:11:04;4.00;;;3.60;;
15035;SDS011;7615;48.574;13.474;2023-07-28T13:13:31;6.15;;;3.70;;
15035;SDS011;7615;48.574;13.474;2023-07-28T13:15:58;4.00;;;3.60;;
15035;SDS011;7615;48.574;13.474;2023-07-28T13:18:26;7.88;;;4.28;;
15035;SDS011;7615;48.574;13.474;2023-07-28T13:20:54;3.88;;;3.47;;
15035;SDS011;7615;48.574;13.474;2023-07-28T13:23:23;3.60;;;3.30;;
15035;SDS011;7615;48.574;13.474;2023-07-28T13:25:50;4.53;;;3.45;;
15035;SDS011;7615;48.574;13.474;2023-07-28T13:28:17;3.38;;;3.08;;
15035;SDS011;7615;48.574;13.474;2023-07-28T13:30:45;5.10;;;3.55;;
15035;SDS011;7615;48.574;13.474;2023-07-28T13:33:12;3.70;;;3.40;;
15035;SDS011;7615;48.574;13.474;2023-07-28T13:35:39;3.30;;;3.10;;
15035;SDS011;7615;48.574;13.474;2023-07-28T13:38:06;3.50;;;3.20;;
15035;SDS011;7615;48.574;13.474;2023-07-28T13:40:35;3.97;;;3.65;;
15035;SDS011;7615;48.574;13.474;2023-07-28T13:43:03;3.83;;;3.53;;
15035;SDS011;7615;48.574;13.474;2023-07-28T13:45:30;3.47;;;3.17;;
15035;SDS011;7615;48.574;13.474;2023-07-28T13:47:57;5.75;;;3.17;;
15035;SDS011;7615;48.574;13.474;2023-07-28T13:50:24;4.70;;;2.95;;
15035;SDS011;7615;48.574;13.474;2023-07-28T13:52:51;4.03;;;3.15;;
15035;SDS011;7615;48.574;13.474;2023-07-28T13:55:18;3.55;;;3.25;;
15035;SDS011;7615;48.574;13.474;2023-07-28T13:57:47;3.20;;;2.95;;
15035;SDS011;7615;48.574;13.474;2023-07-28T14:00:14;3.60;;;2.78;;
15035;SDS011;7615;48.574;13.474;2023-07-28T14:02:41;3.25;;;2.97;;
15035;SDS011;7615;48.574;13.474;2023-07-28T14:05:08;3.35;;;3.05;;
15035;SDS011;7615;48.574;13.474;2023-07-28T14:07:36;3.17;;;2.88;;
15035;SDS011;7615;48.574;13.474;2023-07-28T14:10:03;2.90;;;2.70;;
15035;SDS011;7615;48.574;13.474;2023-07-28T14:12:31;3.83;;;2.97;;
15035;SDS011;7615;48.574;13.474;2023-07-28T14:14:59;4.07;;;3.67;;
15035;SDS011;7615;48.574;13.474;2023-07-28T14:17:26;5.07;;;3.80;;
15035;SDS011;7615;48.574;13.474;2023-07-28T14:19:53;3.50;;;3.20;;
15035;SDS011;7615;48.574;13.474;2023-07-28T14:22:20;4.35;;;2.97;;
15035;SDS011;7615;48.574;13.474;2023-07-28T14:24:48;3.80;;;3.40;;
15035;SDS011;7615;48.574;13.474;2023-07-28T14:27:15;3.88;;;2.90;;
15035;SDS011;7615;48.574;13.474;2023-07-28T14:29:42;3.42;;;3.13;;
15035;SDS011;7615;48.574;13.474;2023-07-28T14:32:11;3.50;;;3.20;;
15035;SDS011;7615;48.574;13.474;2023-07-28T14:34:38;5.10;;;3.40;;
15035;SDS011;7615;48.574;13.474;2023-07-28T14:37:05;3.70;;;3.30;;
15035;SDS011;7615;48.574;13.474;2023-07-28T14:39:33;4.95;;;3.25;;
15035;SDS011;7615;48.574;13.474;2023-07-28T14:42:00;4.18;;;3.13;;
15035;SDS011;7615;48.574;13.474;2023-07-28T14:44:27;3.30;;;3.00;;
15035;SDS011;7615;48.574;13.474;2023-07-28T14:46:54;3.67;;;3.22;;
15035;SDS011;7615;48.574;13.474;2023-07-28T14:49:23;3.58;;;3.00;;
15035;SDS011;7615;48.574;13.474;2023-07-28T14:51:52;3.28;;;3.00;;
15035;SDS011;7615;48.574;13.474;2023-07-28T14:54:20;3.20;;;2.92;;
15035;SDS011;7615;48.574;13.474;2023-07-28T14:56:47;3.35;;;3.05;;
15035;SDS011;7615;48.574;13.474;2023-07-28T14:59:14;3.20;;;2.92;;
15035;SDS011;7615;48.574;13.474;2023-07-28T15:01:43;4.45;;;3.25;;